Southport, North Carolina
Current Conditions -  °F | °C
As of 2:55 AM on Friday 24 Oct 2014 (Local Time) from KSUT Reporting Station
Clear Clear  
Wind Chill: 51°   Ceiling: Unl
Heat Index: 51°   Visibility: 10mi
Dew Point: 45°   Wind: 6mph
Humidity: 79%   Direction: 310°NW
Pressure: 30"   Gusts: NA
Location:  33.92°N, 78.02°W
Report Text: KSUT 240655Z AUTO 31005KT 10SM CLR 11/07 A3000 RMK AO2 T01060071
Loading
Personal Weather Stations






























Interactive Weather Map New forecast layout! Learn more

10-Day Weather Forecast

Advertisements
Track Severe Weather on mobile